sensor_id;sensor_type;location;lat;lon;timestamp;pressure;altitude;pressure_sealevel;temperature;humidity
44825;BME280;30542;47.928;2.138;2023-02-15T00:02:53;101460.31;;;19.30;42.53
44825;BME280;30542;47.928;2.138;2023-02-15T00:07:54;101447.66;;;19.26;42.71
44825;BME280;30542;47.928;2.138;2023-02-15T00:12:54;101443.38;;;19.25;42.73
44825;BME280;30542;47.928;2.138;2023-02-15T00:17:57;101436.06;;;19.20;42.66
44825;BME280;30542;47.928;2.138;2023-02-15T00:22:58;101428.03;;;19.20;42.95
44825;BME280;30542;47.928;2.138;2023-02-15T00:28:00;101402.81;;;19.04;42.92
44825;BME280;30542;47.928;2.138;2023-02-15T00:33:00;101421.75;;;19.15;43.17
44825;BME280;30542;47.928;2.138;2023-02-15T00:38:00;101426.72;;;19.11;42.99
44825;BME280;30542;47.928;2.138;2023-02-15T00:43:01;101430.91;;;19.07;42.98
44825;BME280;30542;47.928;2.138;2023-02-15T00:48:01;101421.28;;;19.06;42.75
44825;BME280;30542;47.928;2.138;2023-02-15T00:53:01;101414.53;;;19.03;42.53
44825;BME280;30542;47.928;2.138;2023-02-15T00:58:02;101400.94;;;18.93;42.82
44825;BME280;30542;47.928;2.138;2023-02-15T01:03:03;101410.25;;;19.02;42.42
44825;BME280;30542;47.928;2.138;2023-02-15T01:08:03;101406.75;;;19.02;42.41
44825;BME280;30542;47.928;2.138;2023-02-15T01:13:04;101410.47;;;19.01;42.56
44825;BME280;30542;47.928;2.138;2023-02-15T01:18:05;101408.03;;;18.99;42.71
44825;BME280;30542;47.928;2.138;2023-02-15T01:23:05;101415.00;;;19.00;42.22
44825;BME280;30542;47.928;2.138;2023-02-15T01:28:06;101415.00;;;19.00;42.19
44825;BME280;30542;47.928;2.138;2023-02-15T01:33:06;101421.38;;;18.99;42.55
44825;BME280;30542;47.928;2.138;2023-02-15T01:38:07;101418.13;;;18.97;42.25
44825;BME280;30542;47.928;2.138;2023-02-15T01:43:11;101415.91;;;18.94;42.44
44825;BME280;30542;47.928;2.138;2023-02-15T01:48:16;101421.50;;;18.93;41.91
44825;BME280;30542;47.928;2.138;2023-02-15T01:58:28;101395.00;;;18.79;42.28
44825;BME280;30542;47.928;2.138;2023-02-15T02:04:12;101401.72;;;18.82;42.11
44825;BME280;30542;47.928;2.138;2023-02-15T02:09:13;101404.03;;;18.78;41.89
44825;BME280;30542;47.928;2.138;2023-02-15T02:14:14;101404.03;;;18.78;41.76
44825;BME280;30542;47.928;2.138;2023-02-15T02:35:30;101381.50;;;18.62;41.73
44825;BME280;30542;47.928;2.138;2023-02-15T02:51:13;101373.34;;;18.57;41.97
44825;BME280;30542;47.928;2.138;2023-02-15T03:01:22;101368.97;;;18.63;41.93
44825;BME280;30542;47.928;2.138;2023-02-15T03:06:31;101362.50;;;18.71;41.43
44825;BME280;30542;47.928;2.138;2023-02-15T03:11:33;101371.44;;;18.76;41.41
44825;BME280;30542;47.928;2.138;2023-02-15T03:16:34;101371.56;;;18.81;41.86
44825;BME280;30542;47.928;2.138;2023-02-15T03:21:49;101368.19;;;18.86;41.55
44825;BME280;30542;47.928;2.138;2023-02-15T03:26:58;101364.50;;;18.87;41.15
44825;BME280;30542;47.928;2.138;2023-02-15T03:32:03;101364.38;;;18.94;41.54
44825;BME280;30542;47.928;2.138;2023-02-15T03:37:15;101364.75;;;18.97;41.31
44825;BME280;30542;47.928;2.138;2023-02-15T03:42:29;101378.09;;;19.09;41.39
44825;BME280;30542;47.928;2.138;2023-02-15T03:47:36;101357.53;;;19.09;41.03
44825;BME280;30542;47.928;2.138;2023-02-15T03:52:38;101384.72;;;19.30;40.51
44825;BME280;30542;47.928;2.138;2023-02-15T03:57:39;101389.47;;;19.40;40.62
44825;BME280;30542;47.928;2.138;2023-02-15T04:08:20;101385.63;;;19.47;40.42
44825;BME280;30542;47.928;2.138;2023-02-15T04:13:40;101387.13;;;19.55;39.90
44825;BME280;30542;47.928;2.138;2023-02-15T04:18:43;101394.34;;;19.66;39.96
44825;BME280;30542;47.928;2.138;2023-02-15T04:24:02;101387.97;;;19.67;39.75
44825;BME280;30542;47.928;2.138;2023-02-15T04:29:22;101389.34;;;19.70;39.40
44825;BME280;30542;47.928;2.138;2023-02-15T04:34:23;101386.44;;;19.71;39.71
44825;BME280;30542;47.928;2.138;2023-02-15T04:39:23;101391.31;;;19.74;39.66
44825;BME280;30542;47.928;2.138;2023-02-15T04:44:24;101378.88;;;19.80;39.28
44825;BME280;30542;47.928;2.138;2023-02-15T04:49:24;101386.97;;;19.85;39.44
44825;BME280;30542;47.928;2.138;2023-02-15T04:54:24;101378.03;;;19.91;39.20
44825;BME280;30542;47.928;2.138;2023-02-15T04:59:25;101383.47;;;19.96;39.26
44825;BME280;30542;47.928;2.138;2023-02-15T05:04:25;101378.47;;;20.00;39.09
44825;BME280;30542;47.928;2.138;2023-02-15T05:09:26;101368.91;;;20.04;39.07
44825;BME280;30542;47.928;2.138;2023-02-15T05:14:26;101369.81;;;20.09;38.92
44825;BME280;30542;47.928;2.138;2023-02-15T05:19:27;101368.53;;;20.12;38.58
44825;BME280;30542;47.928;2.138;2023-02-15T05:24:27;101365.06;;;20.11;38.55
44825;BME280;30542;47.928;2.138;2023-02-15T05:29:46;101373.97;;;20.17;38.57
44825;BME280;30542;47.928;2.138;2023-02-15T05:34:46;101380.72;;;20.20;38.73
44825;BME280;30542;47.928;2.138;2023-02-15T05:39:47;101374.78;;;20.18;38.70
44825;BME280;30542;47.928;2.138;2023-02-15T05:44:51;101355.28;;;20.05;38.37
44825;BME280;30542;47.928;2.138;2023-02-15T05:49:51;101377.06;;;20.26;38.47
44825;BME280;30542;47.928;2.138;2023-02-15T05:54:51;101374.97;;;20.28;38.64
44825;BME280;30542;47.928;2.138;2023-02-15T05:59:52;101362.81;;;20.20;38.47
44825;BME280;30542;47.928;2.138;2023-02-15T06:04:52;101380.31;;;20.28;38.33
44825;BME280;30542;47.928;2.138;2023-02-15T06:09:53;101372.63;;;20.31;38.48
44825;BME280;30542;47.928;2.138;2023-02-15T06:14:53;101383.09;;;20.33;38.61
44825;BME280;30542;47.928;2.138;2023-02-15T06:19:53;101377.75;;;20.33;38.46
44825;BME280;30542;47.928;2.138;2023-02-15T06:24:54;101374.81;;;20.34;38.49
44825;BME280;30542;47.928;2.138;2023-02-15T06:29:54;101374.56;;;20.36;38.43
44825;BME280;30542;47.928;2.138;2023-02-15T06:34:54;101378.09;;;20.36;38.20
44825;BME280;30542;47.928;2.138;2023-02-15T06:39:55;101393.88;;;20.38;38.21
44825;BME280;30542;47.928;2.138;2023-02-15T06:44:55;101400.38;;;20.42;37.96
44825;BME280;30542;47.928;2.138;2023-02-15T06:49:55;101399.09;;;20.45;38.10
44825;BME280;30542;47.928;2.138;2023-02-15T06:54:56;101413.28;;;20.45;37.90
44825;BME280;30542;47.928;2.138;2023-02-15T06:59:56;101403.41;;;20.46;37.86
44825;BME280;30542;47.928;2.138;2023-02-15T07:04:58;101417.34;;;20.48;37.95
44825;BME280;30542;47.928;2.138;2023-02-15T07:09:58;101407.25;;;20.38;37.68
44825;BME280;30542;47.928;2.138;2023-02-15T07:14:59;101421.78;;;20.42;37.20
44825;BME280;30542;47.928;2.138;2023-02-15T07:19:59;101424.81;;;20.46;37.57
44825;BME280;30542;47.928;2.138;2023-02-15T07:25:00;101426.41;;;20.47;37.96
44825;BME280;30542;47.928;2.138;2023-02-15T07:30:00;101438.16;;;20.57;38.48
44825;BME280;30542;47.928;2.138;2023-02-15T07:35:01;101444.16;;;20.65;38.62
44825;BME280;30542;47.928;2.138;2023-02-15T07:40:01;101458.47;;;20.70;38.59
44825;BME280;30542;47.928;2.138;2023-02-15T07:45:02;101454.00;;;20.76;38.37
44825;BME280;30542;47.928;2.138;2023-02-15T07:50:02;101462.03;;;20.76;37.84
44825;BME280;30542;47.928;2.138;2023-02-15T07:55:03;101464.97;;;20.74;38.01
44825;BME280;30542;47.928;2.138;2023-02-15T08:00:04;101452.13;;;20.76;38.26
44825;BME280;30542;47.928;2.138;2023-02-15T08:05:05;101457.16;;;20.73;38.43
44825;BME280;30542;47.928;2.138;2023-02-15T08:10:06;101459.28;;;20.71;38.49
44825;BME280;30542;47.928;2.138;2023-02-15T08:15:07;101463.00;;;20.70;38.66
44825;BME280;30542;47.928;2.138;2023-02-15T08:20:07;101466.16;;;20.67;38.77
44825;BME280;30542;47.928;2.138;2023-02-15T08:25:08;101470.00;;;20.71;40.27
44825;BME280;30542;47.928;2.138;2023-02-15T08:30:09;101474.66;;;20.64;42.69
44825;BME280;30542;47.928;2.138;2023-02-15T08:35:09;101468.22;;;20.36;39.82
44825;BME280;30542;47.928;2.138;2023-02-15T08:40:10;101458.81;;;19.93;35.32
44825;BME280;30542;47.928;2.138;2023-02-15T08:45:13;101472.09;;;19.76;36.87
44825;BME280;30542;47.928;2.138;2023-02-15T08:50:13;101471.97;;;19.71;36.77
44825;BME280;30542;47.928;2.138;2023-02-15T08:55:14;101477.31;;;19.71;37.00
44825;BME280;30542;47.928;2.138;2023-02-15T09:00:16;101365.31;;;19.11;37.49
44825;BME280;30542;47.928;2.138;2023-02-15T09:05:17;101467.53;;;19.77;38.32
44825;BME280;30542;47.928;2.138;2023-02-15T09:10:17;101470.81;;;19.91;38.72
44825;BME280;30542;47.928;2.138;2023-02-15T09:15:18;101463.22;;;19.99;39.00
44825;BME280;30542;47.928;2.138;2023-02-15T09:20:18;101458.06;;;20.09;39.08
44825;BME280;30542;47.928;2.138;2023-02-15T09:25:19;101466.06;;;20.21;39.32
44825;BME280;30542;47.928;2.138;2023-02-15T09:30:19;101450.28;;;20.20;39.00
44825;BME280;30542;47.928;2.138;2023-02-15T09:35:20;101472.28;;;20.39;39.30
44825;BME280;30542;47.928;2.138;2023-02-15T09:40:20;101478.06;;;20.47;39.56
44825;BME280;30542;47.928;2.138;2023-02-15T09:45:31;101488.53;;;20.60;41.26
44825;BME280;30542;47.928;2.138;2023-02-15T09:50:42;101491.88;;;20.68;41.82
44825;BME280;30542;47.928;2.138;2023-02-15T10:11:27;101512.34;;;20.74;43.21
44825;BME280;30542;47.928;2.138;2023-02-15T10:27:24;101518.28;;;20.76;44.47
44825;BME280;30542;47.928;2.138;2023-02-15T10:32:27;101513.50;;;20.78;44.55
44825;BME280;30542;47.928;2.138;2023-02-15T10:58:24;101521.28;;;20.79;45.05
44825;BME280;30542;47.928;2.138;2023-02-15T11:09:08;101524.31;;;20.83;45.31
44825;BME280;30542;47.928;2.138;2023-02-15T11:19:34;101514.16;;;20.85;45.06
44825;BME280;30542;47.928;2.138;2023-02-15T11:24:41;101492.31;;;20.76;45.53
44825;BME280;30542;47.928;2.138;2023-02-15T11:30:27;101502.97;;;20.88;45.48
44825;BME280;30542;47.928;2.138;2023-02-15T11:40:31;101494.38;;;20.86;45.37
44825;BME280;30542;47.928;2.138;2023-02-15T11:45:34;101483.47;;;20.76;45.53
44825;BME280;30542;47.928;2.138;2023-02-15T11:50:36;101493.53;;;20.85;45.37
44825;BME280;30542;47.928;2.138;2023-02-15T11:55:36;101490.28;;;20.83;45.48
44825;BME280;30542;47.928;2.138;2023-02-15T12:00:42;101484.34;;;20.81;45.47
44825;BME280;30542;47.928;2.138;2023-02-15T12:05:45;101486.22;;;20.81;45.63
44825;BME280;30542;47.928;2.138;2023-02-15T12:11:28;101478.19;;;20.81;45.67
44825;BME280;30542;47.928;2.138;2023-02-15T12:16:34;101466.59;;;20.75;45.81
44825;BME280;30542;47.928;2.138;2023-02-15T12:21:41;101453.13;;;20.70;45.81
44825;BME280;30542;47.928;2.138;2023-02-15T12:26:42;101469.00;;;20.77;45.70
44825;BME280;30542;47.928;2.138;2023-02-15T12:31:48;101465.53;;;20.76;45.60
44825;BME280;30542;47.928;2.138;2023-02-15T12:36:53;101467.41;;;20.76;45.84
44825;BME280;30542;47.928;2.138;2023-02-15T12:42:08;101459.38;;;20.76;45.82
44825;BME280;30542;47.928;2.138;2023-02-15T12:47:18;101465.78;;;20.75;46.21
44825;BME280;30542;47.928;2.138;2023-02-15T13:02:48;101466.72;;;20.69;46.21
44825;BME280;30542;47.928;2.138;2023-02-15T13:07:53;101460.34;;;20.70;46.27
44825;BME280;30542;47.928;2.138;2023-02-15T13:12:56;101460.34;;;20.70;46.20
44825;BME280;30542;47.928;2.138;2023-02-15T13:17:58;101445.69;;;20.60;46.43
44825;BME280;30542;47.928;2.138;2023-02-15T13:23:20;101441.50;;;20.65;46.26
44825;BME280;30542;47.928;2.138;2023-02-15T13:28:28;101438.81;;;20.65;46.27
44825;BME280;30542;47.928;2.138;2023-02-15T13:33:36;101438.81;;;20.65;46.12
44825;BME280;30542;47.928;2.138;2023-02-15T13:43:59;101418.03;;;20.55;45.94
44825;BME280;30542;47.928;2.138;2023-02-15T14:16:23;101399.56;;;20.53;45.54
44825;BME280;30542;47.928;2.138;2023-02-15T14:21:30;101400.38;;;20.54;45.50
44825;BME280;30542;47.928;2.138;2023-02-15T14:26:40;101372.00;;;20.41;45.40
44825;BME280;30542;47.928;2.138;2023-02-15T14:31:47;101369.88;;;20.43;45.39
44825;BME280;30542;47.928;2.138;2023-02-15T14:36:51;101371.50;;;20.44;45.36
44825;BME280;30542;47.928;2.138;2023-02-15T14:41:56;101383.50;;;20.53;45.56
44825;BME280;30542;47.928;2.138;2023-02-15T14:47:04;101385.78;;;20.62;45.42
44825;BME280;30542;47.928;2.138;2023-02-15T14:52:10;101386.91;;;20.66;45.26
44825;BME280;30542;47.928;2.138;2023-02-15T15:02:25;101372.06;;;20.58;45.08
44825;BME280;30542;47.928;2.138;2023-02-15T15:07:35;101369.53;;;20.51;45.09
44825;BME280;30542;47.928;2.138;2023-02-15T15:12:37;101380.44;;;20.62;45.09
44825;BME280;30542;47.928;2.138;2023-02-15T15:22:41;101380.09;;;20.58;44.96
44825;BME280;30542;47.928;2.138;2023-02-15T15:48:36;101380.31;;;20.56;44.59
44825;BME280;30542;47.928;2.138;2023-02-15T15:53:42;101372.78;;;20.53;44.74
44825;BME280;30542;47.928;2.138;2023-02-15T15:58:49;101380.22;;;20.51;44.66
44825;BME280;30542;47.928;2.138;2023-02-15T16:03:52;101375.94;;;20.50;45.27
44825;BME280;30542;47.928;2.138;2023-02-15T16:08:52;101376.38;;;20.47;45.91
44825;BME280;30542;47.928;2.138;2023-02-15T16:13:55;101376.84;;;20.44;46.03
44825;BME280;30542;47.928;2.138;2023-02-15T16:18:56;101382.13;;;20.39;45.80
44825;BME280;30542;47.928;2.138;2023-02-15T16:29:31;101379.28;;;20.29;46.07
44825;BME280;30542;47.928;2.138;2023-02-15T16:34:32;101374.16;;;20.27;46.38
44825;BME280;30542;47.928;2.138;2023-02-15T16:39:40;101387.88;;;20.31;46.79
44825;BME280;30542;47.928;2.138;2023-02-15T16:44:41;101390.53;;;20.31;47.08
44825;BME280;30542;47.928;2.138;2023-02-15T16:49:45;101391.59;;;20.30;47.24
44825;BME280;30542;47.928;2.138;2023-02-15T16:54:52;101391.00;;;20.28;47.63
44825;BME280;30542;47.928;2.138;2023-02-15T16:59:59;101387.53;;;20.27;47.44
44825;BME280;30542;47.928;2.138;2023-02-15T17:10:26;101385.47;;;20.18;47.84
44825;BME280;30542;47.928;2.138;2023-02-15T17:20:29;101398.47;;;20.26;48.12
44825;BME280;30542;47.928;2.138;2023-02-15T17:25:38;101400.34;;;20.25;48.14
44825;BME280;30542;47.928;2.138;2023-02-15T17:30:40;101401.41;;;20.24;48.23
44825;BME280;30542;47.928;2.138;2023-02-15T17:35:40;101411.28;;;20.24;47.88
44825;BME280;30542;47.928;2.138;2023-02-15T17:40:41;101418.25;;;20.25;48.13
44825;BME280;30542;47.928;2.138;2023-02-15T17:45:49;101409.44;;;20.24;47.91
44825;BME280;30542;47.928;2.138;2023-02-15T17:50:50;101415.00;;;20.23;48.24
44825;BME280;30542;47.928;2.138;2023-02-15T17:55:50;101415.00;;;20.23;48.21
44825;BME280;30542;47.928;2.138;2023-02-15T18:00:54;101410.94;;;20.20;48.34
44825;BME280;30542;47.928;2.138;2023-02-15T18:06:14;101416.72;;;20.29;48.11
44825;BME280;30542;47.928;2.138;2023-02-15T18:11:33;101416.47;;;20.30;48.25
44825;BME280;30542;47.928;2.138;2023-02-15T18:16:39;101400.25;;;20.20;48.43
44825;BME280;30542;47.928;2.138;2023-02-15T18:21:42;101414.97;;;20.34;48.76
44825;BME280;30542;47.928;2.138;2023-02-15T18:26:43;101418.22;;;20.36;48.70
44825;BME280;30542;47.928;2.138;2023-02-15T18:31:47;101425.41;;;20.36;48.73
44825;BME280;30542;47.928;2.138;2023-02-15T18:36:51;101441.00;;;20.39;48.55
44825;BME280;30542;47.928;2.138;2023-02-15T18:41:52;101442.59;;;20.40;48.35
44825;BME280;30542;47.928;2.138;2023-02-15T18:46:52;101439.94;;;20.40;48.45
44825;BME280;30542;47.928;2.138;2023-02-15T18:51:53;101435.66;;;20.39;48.24
44825;BME280;30542;47.928;2.138;2023-02-15T18:56:58;101437.97;;;20.35;48.59
44825;BME280;30542;47.928;2.138;2023-02-15T19:02:00;101438.56;;;20.38;48.38
44825;BME280;30542;47.928;2.138;2023-02-15T19:07:00;101446.00;;;20.35;48.79
44825;BME280;30542;47.928;2.138;2023-02-15T19:12:00;101439.84;;;20.35;48.92
44825;BME280;30542;47.928;2.138;2023-02-15T19:17:01;101441.16;;;20.32;49.36
44825;BME280;30542;47.928;2.138;2023-02-15T19:22:01;101422.22;;;20.22;49.38
44825;BME280;30542;47.928;2.138;2023-02-15T19:27:02;101430.13;;;20.29;49.53
44825;BME280;30542;47.928;2.138;2023-02-15T19:32:03;101410.16;;;20.20;49.19
44825;BME280;30542;47.928;2.138;2023-02-15T19:37:04;101428.97;;;20.25;49.13
44825;BME280;30542;47.928;2.138;2023-02-15T19:42:05;101424.66;;;20.24;48.63
44825;BME280;30542;47.928;2.138;2023-02-15T19:47:12;101422.25;;;20.10;49.16
44825;BME280;30542;47.928;2.138;2023-02-15T19:52:18;101441.66;;;20.18;48.96
44825;BME280;30542;47.928;2.138;2023-02-15T19:57:19;101442.81;;;20.22;49.03
44825;BME280;30542;47.928;2.138;2023-02-15T20:02:20;101441.41;;;20.19;48.89
44825;BME280;30542;47.928;2.138;2023-02-15T20:07:24;101443.06;;;20.20;48.37
44825;BME280;30542;47.928;2.138;2023-02-15T20:12:26;101430.88;;;20.13;48.53
44825;BME280;30542;47.928;2.138;2023-02-15T20:17:28;101430.88;;;20.13;48.23
44825;BME280;30542;47.928;2.138;2023-02-15T20:22:29;101439.22;;;20.16;47.89
44825;BME280;30542;47.928;2.138;2023-02-15T20:27:29;101436.66;;;20.21;47.87
44825;BME280;30542;47.928;2.138;2023-02-15T20:32:29;101439.56;;;20.20;47.68
44825;BME280;30542;47.928;2.138;2023-02-15T20:37:30;101440.59;;;20.19;47.71
44825;BME280;30542;47.928;2.138;2023-02-15T20:42:33;101447.34;;;20.21;47.37
44825;BME280;30542;47.928;2.138;2023-02-15T20:47:33;101444.34;;;20.18;47.29
44825;BME280;30542;47.928;2.138;2023-02-15T20:52:34;101439.56;;;20.20;47.40
44825;BME280;30542;47.928;2.138;2023-02-15T20:57:35;101450.84;;;20.22;47.30
44825;BME280;30542;47.928;2.138;2023-02-15T21:02:35;101453.25;;;20.23;46.95
44825;BME280;30542;47.928;2.138;2023-02-15T21:07:36;101437.28;;;20.11;47.07
44825;BME280;30542;47.928;2.138;2023-02-15T21:12:36;101465.00;;;20.22;46.78
44825;BME280;30542;47.928;2.138;2023-02-15T21:17:36;101466.88;;;20.22;46.80
44825;BME280;30542;47.928;2.138;2023-02-15T21:22:37;101463.16;;;20.23;46.66
44825;BME280;30542;47.928;2.138;2023-02-15T21:27:40;101465.25;;;20.21;46.56
44825;BME280;30542;47.928;2.138;2023-02-15T21:32:41;101450.16;;;20.15;46.60
44825;BME280;30542;47.928;2.138;2023-02-15T21:37:43;101451.66;;;20.10;46.60
44825;BME280;30542;47.928;2.138;2023-02-15T21:42:44;101464.22;;;20.22;46.23
44825;BME280;30542;47.928;2.138;2023-02-15T21:48:03;101457.97;;;20.16;46.18
44825;BME280;30542;47.928;2.138;2023-02-15T21:53:05;101468.41;;;20.18;46.31
44825;BME280;30542;47.928;2.138;2023-02-15T21:58:06;101461.56;;;20.10;46.30
44825;BME280;30542;47.928;2.138;2023-02-15T22:03:06;101465.53;;;20.07;46.11
44825;BME280;30542;47.928;2.138;2023-02-15T22:08:11;101462.97;;;20.01;46.10
44825;BME280;30542;47.928;2.138;2023-02-15T22:13:18;101459.84;;;20.04;46.42
44825;BME280;30542;47.928;2.138;2023-02-15T22:18:24;101460.56;;;19.99;46.48
44825;BME280;30542;47.928;2.138;2023-02-15T22:23:25;101482.16;;;19.98;46.03
44825;BME280;30542;47.928;2.138;2023-02-15T22:28:34;101481.00;;;19.94;45.96
44825;BME280;30542;47.928;2.138;2023-02-15T22:33:36;101472.63;;;19.90;45.95
44825;BME280;30542;47.928;2.138;2023-02-15T22:38:36;101480.09;;;19.88;46.09
44825;BME280;30542;47.928;2.138;2023-02-15T22:43:39;101455.69;;;19.73;46.01
44825;BME280;30542;47.928;2.138;2023-02-15T22:48:42;101479.41;;;19.81;45.95
44825;BME280;30542;47.928;2.138;2023-02-15T22:53:42;101479.84;;;19.78;45.65
44825;BME280;30542;47.928;2.138;2023-02-15T22:58:43;101468.34;;;19.66;45.55
44825;BME280;30542;47.928;2.138;2023-02-15T23:03:47;101481.06;;;19.70;45.73
44825;BME280;30542;47.928;2.138;2023-02-15T23:08:47;101471.53;;;19.63;45.58
44825;BME280;30542;47.928;2.138;2023-02-15T23:13:48;101475.88;;;19.57;45.50
44825;BME280;30542;47.928;2.138;2023-02-15T23:18:49;101475.88;;;19.57;45.77
44825;BME280;30542;47.928;2.138;2023-02-15T23:23:52;101488.44;;;19.56;45.80
44825;BME280;30542;47.928;2.138;2023-02-15T23:28:54;101485.53;;;19.46;46.06
44825;BME280;30542;47.928;2.138;2023-02-15T23:33:55;101496.22;;;19.46;45.70
44825;BME280;30542;47.928;2.138;2023-02-15T23:38:58;101487.25;;;19.41;45.52
44825;BME280;30542;47.928;2.138;2023-02-15T23:44:19;101487.97;;;19.36;45.69
44825;BME280;30542;47.928;2.138;2023-02-15T23:49:19;101492.13;;;19.32;45.98
44825;BME280;30542;47.928;2.138;2023-02-15T23:54:24;101476.00;;;19.27;45.49
44825;BME280;30542;47.928;2.138;2023-02-15T23:59:27;101483.06;;;19.21;45.81
